createdAt,value
2018-05-14T00:03:14.218Z,65.70
2018-05-14T00:08:16.785Z,66.30
2018-05-14T00:13:19.353Z,66.30
2018-05-14T00:18:21.918Z,66.40
2018-05-14T00:23:24.491Z,66.40
2018-05-14T00:33:35.240Z,66.40
2018-05-14T00:38:39.614Z,67.00
2018-05-14T00:43:42.382Z,66.90
2018-05-14T00:48:46.099Z,66.80
2018-05-14T00:53:49.170Z,66.70
2018-05-14T00:58:51.840Z,66.50
2018-05-14T01:03:54.625Z,66.60
2018-05-14T01:08:58.872Z,67.60
2018-05-14T01:14:02.457Z,66.50
2018-05-14T01:19:05.420Z,66.50
2018-05-14T01:24:08.225Z,66.60
2018-05-14T01:29:10.959Z,66.20
2018-05-14T01:34:13.711Z,66.50
2018-05-14T01:39:16.838Z,66.30
2018-05-14T01:44:20.344Z,66.00
2018-05-14T01:49:23.014Z,65.80
2018-05-14T01:54:25.752Z,65.60
2018-05-14T01:59:28.478Z,65.60
2018-05-14T02:04:31.368Z,65.50
2018-05-14T02:09:34.339Z,65.30
2018-05-14T02:14:37.185Z,65.20
2018-05-14T02:19:40.142Z,65.00
2018-05-14T02:24:42.973Z,64.80
2018-05-14T02:29:47.301Z,65.20
2018-05-14T02:34:50.002Z,65.00
2018-05-14T02:39:52.868Z,65.10
2018-05-14T02:44:56.527Z,65.10
2018-05-14T02:49:59.270Z,65.20
2018-05-14T02:55:02.125Z,65.10
2018-05-14T03:00:04.687Z,65.30
2018-05-14T03:05:07.484Z,65.30
2018-05-14T03:10:10.277Z,65.40
2018-05-14T03:15:17.375Z,65.50
2018-05-14T03:20:20.450Z,65.50
2018-05-14T03:25:23.126Z,65.50
2018-05-14T03:30:26.502Z,65.80
2018-05-14T03:35:30.209Z,65.80
2018-05-14T03:40:32.884Z,65.70
2018-05-14T03:45:35.882Z,65.90
2018-05-14T03:50:38.760Z,65.90
2018-05-14T03:55:41.423Z,65.80
2018-05-14T04:00:56.196Z,66.10
2018-05-14T04:06:10.825Z,66.20
2018-05-14T04:11:13.492Z,66.00
2018-05-14T04:16:16.319Z,66.10
2018-05-14T04:21:19.778Z,66.10
2018-05-14T04:26:22.434Z,65.90
2018-05-14T04:31:26.039Z,66.00
2018-05-14T04:36:28.729Z,65.90
2018-05-14T04:41:32.276Z,65.70
2018-05-14T04:46:35.743Z,66.00
2018-05-14T04:51:40.012Z,66.30
2018-05-14T04:56:49.235Z,66.30
2018-05-14T05:01:51.825Z,66.10
2018-05-14T05:06:59.971Z,66.40
2018-05-14T05:17:12.497Z,66.50
2018-05-14T05:27:41.714Z,66.20
2018-05-14T05:32:50.640Z,66.30
2018-05-14T05:38:02.772Z,66.00
2018-05-14T05:43:12.424Z,65.50
2018-05-14T05:48:39.803Z,65.20
2018-05-14T05:53:42.542Z,65.40
2018-05-14T05:58:58.759Z,65.20
2018-05-14T06:04:08.861Z,65.20
2018-05-14T06:09:14.777Z,66.00
2018-05-14T06:14:24.031Z,65.60
2018-05-14T06:19:34.593Z,65.60
2018-05-14T06:24:42.818Z,65.30
2018-05-14T06:35:12.671Z,64.80
2018-05-14T06:40:20.457Z,64.50
2018-05-14T06:45:31.052Z,64.50
2018-05-14T06:50:34.106Z,63.90
2018-05-14T06:55:41.639Z,63.60
2018-05-14T07:06:31.401Z,62.90
2018-05-14T07:11:40.874Z,63.10
2018-05-14T07:16:43.405Z,63.10
2018-05-14T07:21:45.928Z,63.00
2018-05-14T07:26:57.108Z,61.90
2018-05-14T07:32:03.893Z,62.10
2018-05-14T07:37:19.311Z,62.70
2018-05-14T07:42:21.881Z,62.50
2018-05-14T07:47:30.055Z,63.50
2018-05-14T07:52:32.348Z,62.30
2018-05-14T07:57:34.887Z,62.20
2018-05-14T08:02:40.727Z,62.90
2018-05-14T08:07:44.179Z,62.60
2018-05-14T08:12:49.637Z,62.60
2018-05-14T08:17:54.354Z,62.10
2018-05-14T08:23:03.900Z,63.30
2018-05-14T08:28:10.350Z,63.30
2018-05-14T08:33:16.747Z,63.70
2018-05-14T08:38:21.464Z,63.40
2018-05-14T08:43:26.584Z,62.40
2018-05-14T08:48:31.392Z,61.90
2018-05-14T08:53:36.633Z,62.10
2018-05-14T08:58:49.314Z,60.30
2018-05-14T09:03:55.969Z,60.30
2018-05-14T09:14:14.306Z,58.50
2018-05-14T09:19:19.348Z,57.40
2018-05-14T09:34:57.931Z,55.60
2018-05-14T09:40:02.826Z,54.70
2018-05-14T09:45:08.497Z,53.50
2018-05-14T09:50:13.772Z,53.10
2018-05-14T09:55:19.556Z,53.40
2018-05-14T10:00:25.523Z,52.20
2018-05-14T10:05:31.675Z,51.20
2018-05-14T10:10:36.091Z,50.40
2018-05-14T10:20:54.974Z,50.70
2018-05-14T10:26:00.309Z,50.70
2018-05-14T10:31:05.108Z,49.90
2018-05-14T10:36:08.734Z,50.10
2018-05-14T10:41:17.169Z,50.20
2018-05-14T10:46:25.508Z,51.00
2018-05-14T10:51:31.513Z,50.60
2018-05-14T11:01:49.660Z,50.70
2018-05-14T11:06:59.938Z,51.00
2018-05-14T11:12:03.708Z,51.40
2018-05-14T11:17:17.714Z,52.00
2018-05-14T11:22:22.494Z,51.30
2018-05-14T11:27:30.277Z,50.60
2018-05-14T11:32:38.747Z,50.30
2018-05-14T11:37:45.533Z,49.90
2018-05-14T11:42:48.304Z,60.00
2018-05-14T11:47:51.309Z,64.40
2018-05-14T11:52:55.784Z,65.40
2018-05-14T11:58:01.264Z,66.50
2018-05-14T12:03:10.598Z,64.00
2018-05-14T12:08:22.418Z,67.40
2018-05-14T12:13:32.724Z,68.50
2018-05-14T12:18:39.008Z,67.50
2018-05-14T12:23:45.428Z,67.70
2018-05-14T12:28:51.184Z,68.10
2018-05-14T12:33:57.070Z,69.20
2018-05-14T12:39:05.317Z,69.90
2018-05-14T12:44:12.682Z,69.90
2018-05-14T12:49:18.763Z,70.20
2018-05-14T12:54:25.483Z,70.20
2018-05-14T12:59:32.668Z,70.80
2018-05-14T13:04:38.124Z,70.30
2018-05-14T13:09:41.196Z,70.90
2018-05-14T13:14:46.302Z,71.60
2018-05-14T13:19:51.879Z,71.60
2018-05-14T13:24:57.925Z,71.80
2018-05-14T13:30:02.587Z,71.40
2018-05-14T13:35:05.302Z,71.80
2018-05-14T13:40:08.198Z,71.30
2018-05-14T13:45:17.172Z,69.20
2018-05-14T13:50:20.447Z,66.90
2018-05-14T13:55:25.990Z,67.00
2018-05-14T14:00:46.579Z,66.20
2018-05-14T14:05:50.706Z,67.10
2018-05-14T14:11:03.096Z,67.90
2018-05-14T14:16:08.982Z,69.40
2018-05-14T14:21:13.474Z,71.10
2018-05-14T14:26:18.921Z,70.90
2018-05-14T14:31:27.438Z,71.30
2018-05-14T14:36:31.321Z,71.70
2018-05-14T14:41:34.282Z,71.50
2018-05-14T14:46:39.510Z,71.40
2018-05-14T14:51:42.477Z,71.30
2018-05-14T14:56:46.408Z,71.60
2018-05-14T15:01:51.147Z,72.50
2018-05-14T15:06:55.931Z,72.40
2018-05-14T15:11:59.915Z,68.90
2018-05-14T15:17:05.873Z,61.60
2018-05-14T15:22:11.452Z,60.40
2018-05-14T15:27:19.217Z,60.20
2018-05-14T15:32:22.581Z,61.40
2018-05-14T15:37:28.776Z,63.40
2018-05-14T15:42:33.579Z,65.50
2018-05-14T15:47:38.009Z,66.00
2018-05-14T15:52:46.375Z,66.20
2018-05-14T15:57:52.533Z,66.40
2018-05-14T16:02:56.237Z,66.70
2018-05-14T16:08:01.472Z,66.90
2018-05-14T16:13:07.512Z,67.20
2018-05-14T16:18:11.340Z,67.90
2018-05-14T16:23:15.349Z,67.60
2018-05-14T16:28:21.881Z,68.00
2018-05-14T16:33:25.750Z,68.10
2018-05-14T16:38:28.589Z,68.20
2018-05-14T16:43:31.169Z,68.30
2018-05-14T16:48:33.757Z,69.20
2018-05-14T16:53:36.354Z,69.30
2018-05-14T16:58:39.729Z,70.70
2018-05-14T17:03:42.591Z,70.70
2018-05-14T17:08:45.171Z,71.20
2018-05-14T17:13:48.815Z,71.50
2018-05-14T17:18:51.592Z,71.40
2018-05-14T17:23:54.278Z,70.50
2018-05-14T17:28:56.875Z,70.00
2018-05-14T17:33:59.443Z,69.40
2018-05-14T17:39:02.049Z,69.10
2018-05-14T17:44:04.739Z,68.30
2018-05-14T17:49:07.331Z,64.40
2018-05-14T17:54:13.515Z,63.70
2018-05-14T17:59:16.245Z,63.20
2018-05-14T18:04:18.863Z,62.50
2018-05-14T18:09:21.462Z,60.40
2018-05-14T18:14:24.074Z,59.20
2018-05-14T18:19:26.711Z,59.40
2018-05-14T18:24:30.481Z,58.60
2018-05-14T18:29:33.285Z,58.90
2018-05-14T18:34:39.934Z,59.60
2018-05-14T18:39:42.927Z,60.20
2018-05-14T18:44:45.482Z,61.00
2018-05-14T18:49:48.037Z,61.10
2018-05-14T18:54:50.735Z,60.80
2018-05-14T18:59:53.308Z,60.50
2018-05-14T19:04:55.898Z,60.70
2018-05-14T19:09:58.488Z,60.90
2018-05-14T19:15:06.744Z,61.30
2018-05-14T19:20:09.404Z,61.70
2018-05-14T19:25:11.948Z,62.30
2018-05-14T19:30:15.003Z,62.20
2018-05-14T19:35:29.361Z,62.50
2018-05-14T19:40:37.677Z,62.50
2018-05-14T19:45:41.370Z,62.10
2018-05-14T19:50:43.990Z,62.40
2018-05-14T19:55:47.412Z,61.90
2018-05-14T20:00:50.086Z,61.80
2018-05-14T20:05:52.742Z,61.80
2018-05-14T20:10:55.503Z,61.90
2018-05-14T20:15:58.100Z,61.80
2018-05-14T20:21:01.765Z,62.60
2018-05-14T20:26:04.972Z,61.90
2018-05-14T20:31:07.614Z,62.00
2018-05-14T20:36:10.272Z,61.80
2018-05-14T20:41:13.653Z,61.90
2018-05-14T20:46:16.404Z,62.00
2018-05-14T20:51:19.062Z,62.50
2018-05-14T20:56:21.731Z,62.10
2018-05-14T21:01:24.310Z,62.30
2018-05-14T21:06:26.935Z,62.20
2018-05-14T21:11:29.681Z,62.20
2018-05-14T21:16:32.492Z,62.20
2018-05-14T21:21:35.318Z,62.60
2018-05-14T21:26:38.020Z,62.80
2018-05-14T21:31:41.486Z,63.20
2018-05-14T21:36:44.246Z,63.80
2018-05-14T21:41:47.469Z,63.90
2018-05-14T21:46:50.123Z,63.90
2018-05-14T21:51:53.030Z,64.30
2018-05-14T21:56:56.054Z,64.40
2018-05-14T22:01:59.086Z,64.80
2018-05-14T22:07:01.761Z,64.90
2018-05-14T22:12:04.517Z,64.80
2018-05-14T22:17:07.480Z,64.20
2018-05-14T22:22:10.977Z,63.40
2018-05-14T22:27:13.593Z,63.30
2018-05-14T22:32:16.209Z,63.10
2018-05-14T22:37:19.048Z,62.30
2018-05-14T22:42:21.605Z,61.70
2018-05-14T22:47:24.217Z,61.10
2018-05-14T22:52:27.125Z,61.40
2018-05-14T22:57:29.812Z,61.70
2018-05-14T23:02:33.183Z,62.00
2018-05-14T23:07:36.539Z,62.00
2018-05-14T23:12:40.468Z,62.50
2018-05-14T23:17:43.965Z,62.90
2018-05-14T23:22:46.835Z,62.80
2018-05-14T23:27:49.425Z,63.30
2018-05-14T23:32:52.224Z,63.60
2018-05-14T23:37:55.317Z,63.90
2018-05-14T23:42:58.253Z,64.20
2018-05-14T23:48:00.887Z,63.90
2018-05-14T23:53:03.608Z,63.60
2018-05-14T23:58:06.866Z,63.60
